Time;durP1;ratioP1;P1;durP2;ratioP2;P2;SDS_P1;SDS_P2;PMS_P1;PMS_P2;Temp;Humidity;BMP_temperature;BMP_pressure;BME280_temperature;BME280_humidity;BME280_pressure;Samples;Min_cycle;Max_cycle;Signal;HPM_P1;HPM_P2
2022/09/21 00:00:00;;;;;;;;;;;24.50;42.60;;;;;;1577614;74;1924;-70
2022/09/21 00:02:02;;;;;;;;;;;24.50;42.60;;;;;;1576665;74;690;-70
2022/09/21 00:04:04;;;;;;;;;;;24.40;42.50;;;;;;1582791;74;1599;-70
2022/09/21 00:06:07;;;;;;;;;;;24.50;42.70;;;;;;1579294;74;683;-70
2022/09/21 00:08:10;;;;;;;;;;;24.50;42.70;;;;;;1576927;73;1141;-70
2022/09/21 00:10:12;;;;;;;;;;;24.50;42.70;;;;;;1578567;74;696;-70
2022/09/21 00:12:15;;;;;;;;;;;24.40;42.60;;;;;;1585008;74;736;-71
2022/09/21 00:14:18;;;;;;;;;;;24.50;42.70;;;;;;1581007;74;770;-70
2022/09/21 00:16:20;;;;;;;;;;;24.50;42.70;;;;;;1574763;74;706;-69
2022/09/21 00:18:22;;;;;;;;;;;24.50;42.70;;;;;;1586255;74;1563;-70
2022/09/21 00:20:24;;;;;;;;;;;24.50;42.70;;;;;;1576117;74;1922;-70
2022/09/21 00:22:26;;;;;;;;;;;24.50;42.70;;;;;;1585219;74;660;-70
2022/09/21 00:24:28;;;;;;;;;;;24.50;42.70;;;;;;1581367;74;742;-70
2022/09/21 00:26:30;;;;;;;;;;;24.50;42.80;;;;;;1586137;74;704;-70
2022/09/21 00:28:32;;;;;;;;;;;24.50;42.70;;;;;;1575079;74;1162;-69
2022/09/21 00:30:34;;;;;;;;;;;24.50;42.80;;;;;;1590277;74;802;-70
2022/09/21 00:32:38;;;;;;;;;;;24.60;42.80;;;;;;1574962;74;1225;-70
2022/09/21 00:34:40;;;;;;;;;;;24.50;42.80;;;;;;1576408;74;739;-69
2022/09/21 00:36:42;;;;;;;;;;;24.40;42.70;;;;;;1575091;74;701;-69
2022/09/21 00:38:45;;;;;;;;;;;24.50;42.80;;;;;;1592583;73;1150;-70
2022/09/21 00:40:47;;;;;;;;;;;24.50;42.80;;;;;;1573038;74;1901;-71
2022/09/21 00:42:49;;;;;;;;;;;24.60;42.80;;;;;;1572386;74;663;-71
2022/09/21 00:44:51;;;;;;;;;;;24.50;42.80;;;;;;1580496;74;728;-71
2022/09/21 00:46:53;;;;;;;;;;;24.50;42.80;;;;;;1568838;74;1576;-69
2022/09/21 00:48:55;;;;;;;;;;;24.50;42.80;;;;;;1582382;73;1098;-70
2022/09/21 00:51:00;;;;;;;;;;;24.40;42.90;;;;;;1583242;74;745;-71
2022/09/21 00:53:02;;;;;;;;;;;24.40;42.90;;;;;;1587736;74;730;-70
2022/09/21 00:55:14;;;;;;;;;;;24.40;42.80;;;;;;1580868;74;732;-71
2022/09/21 00:57:16;;;;;;;;;;;24.50;43.00;;;;;;1583287;74;918;-71
2022/09/21 00:59:18;;;;;;;;;;;24.40;42.90;;;;;;1582562;73;1933;-70
2022/09/21 01:01:20;;;;;;;;;;;24.40;43.00;;;;;;1576743;74;1555;-71
2022/09/21 01:03:22;;;;;;;;;;;24.50;43.00;;;;;;1585386;73;759;-69
2022/09/21 01:05:25;;;;;;;;;;;24.40;43.00;;;;;;1575299;74;761;-69
2022/09/21 01:07:27;;;;;;;;;;;24.40;43.00;;;;;;1573846;74;667;-70
2022/09/21 01:09:29;;;;;;;;;;;24.50;43.10;;;;;;1571011;74;1135;-69
2022/09/21 01:11:45;;;;;;;;;;;24.40;43.00;;;;;;1578648;74;769;-70
2022/09/21 01:13:48;;;;;;;;;;;24.40;42.90;;;;;;1552783;76;1174;-70
2022/09/21 01:15:58;;;;;;;;;;;24.40;43.10;;;;;;1564685;74;1934;-68
2022/09/21 01:18:13;;;;;;;;;;;24.40;43.20;;;;;;1581830;74;746;-69
2022/09/21 01:20:32;;;;;;;;;;;24.30;43.30;;;;;;1578111;74;1899;-69
2022/09/21 01:22:40;;;;;;;;;;;24.30;43.40;;;;;;1577179;74;1516;-70
2022/09/21 01:24:44;;;;;;;;;;;24.20;43.40;;;;;;1582142;74;1794;-70
2022/09/21 01:26:57;;;;;;;;;;;24.20;43.40;;;;;;1583459;74;651;-69
2022/09/21 01:29:15;;;;;;;;;;;24.20;43.40;;;;;;1569065;74;1675;-71
2022/09/21 01:31:19;;;;;;;;;;;24.20;43.30;;;;;;1589560;73;741;-71
2022/09/21 01:33:25;;;;;;;;;;;24.30;43.50;;;;;;1574138;74;1916;-71
2022/09/21 01:35:45;;;;;;;;;;;24.20;43.40;;;;;;1585445;74;714;-70
2022/09/21 01:37:49;;;;;;;;;;;24.20;43.50;;;;;;1582823;74;731;-70
2022/09/21 01:39:53;;;;;;;;;;;24.20;43.60;;;;;;1588238;73;1925;-71
2022/09/21 01:41:54;;;;;;;;;;;24.20;43.50;;;;;;1584511;74;695;-70
2022/09/21 01:43:58;;;;;;;;;;;24.20;43.50;;;;;;1591481;74;1656;-71
2022/09/21 01:46:04;;;;;;;;;;;24.20;43.50;;;;;;1583646;74;827;-69
2022/09/21 01:48:03;;;;;;;;;;;24.20;43.40;;;;;;1574308;73;1445;-69
2022/09/21 01:50:05;;;;;;;;;;;24.20;43.50;;;;;;1583228;74;831;-69
2022/09/21 01:52:10;;;;;;;;;;;24.20;43.50;;;;;;1576060;74;856;-71
2022/09/21 01:54:13;;;;;;;;;;;24.20;43.60;;;;;;1576278;74;2119;-69
2022/09/21 01:56:22;;;;;;;;;;;24.20;43.50;;;;;;1566777;74;1772;-71
2022/09/21 01:58:28;;;;;;;;;;;24.20;43.50;;;;;;1583013;73;1172;-71
2022/09/21 02:00:30;;;;;;;;;;;24.20;43.50;;;;;;1585006;74;1934;-71
2022/09/21 02:02:33;;;;;;;;;;;24.20;43.60;;;;;;1588093;74;796;-71
2022/09/21 02:04:37;;;;;;;;;;;24.20;43.60;;;;;;1579291;74;619;-71
2022/09/21 02:06:40;;;;;;;;;;;24.20;43.70;;;;;;1579348;74;679;-72
2022/09/21 02:08:42;;;;;;;;;;;24.20;43.60;;;;;;1585732;74;1157;-72
2022/09/21 02:10:46;;;;;;;;;;;24.20;43.60;;;;;;1569596;74;1585;-72
2022/09/21 02:12:48;;;;;;;;;;;24.20;43.70;;;;;;1576514;74;1864;-71
2022/09/21 02:14:54;;;;;;;;;;;24.20;43.80;;;;;;1584752;74;739;-69
2022/09/21 02:16:55;;;;;;;;;;;24.20;43.80;;;;;;1580650;74;1503;-70
2022/09/21 02:19:01;;;;;;;;;;;24.10;43.80;;;;;;1583158;73;1193;-70
2022/09/21 02:21:03;;;;;;;;;;;24.20;43.70;;;;;;1582755;74;1903;-70
2022/09/21 02:23:06;;;;;;;;;;;24.20;43.70;;;;;;1574555;74;710;-70
2022/09/21 02:25:10;;;;;;;;;;;24.20;43.60;;;;;;1585086;74;1594;-71
2022/09/21 02:27:20;;;;;;;;;;;24.20;43.70;;;;;;1580136;74;1034;-70
2022/09/21 02:29:40;;;;;;;;;;;24.20;43.90;;;;;;1584774;74;1166;-70
2022/09/21 02:31:43;;;;;;;;;;;24.20;43.80;;;;;;1576073;74;795;-70
2022/09/21 02:33:56;;;;;;;;;;;24.10;43.80;;;;;;1581600;74;2010;-71
2022/09/21 02:36:11;;;;;;;;;;;24.10;43.90;;;;;;1579314;74;749;-70
2022/09/21 02:38:33;;;;;;;;;;;24.20;43.90;;;;;;1574726;74;1102;-70
2022/09/21 02:40:55;;;;;;;;;;;24.20;43.80;;;;;;1584946;74;1907;-70
2022/09/21 02:42:58;;;;;;;;;;;24.20;43.70;;;;;;1579326;74;735;-70
2022/09/21 02:45:07;;;;;;;;;;;24.20;43.60;;;;;;1586214;74;600;-70
2022/09/21 02:47:11;;;;;;;;;;;24.20;43.60;;;;;;1585223;74;764;-70
2022/09/21 02:49:15;;;;;;;;;;;24.20;43.60;;;;;;1576956;73;1601;-70
2022/09/21 02:51:18;;;;;;;;;;;24.20;43.60;;;;;;1596452;74;650;-70
2022/09/21 02:53:21;;;;;;;;;;;24.20;43.60;;;;;;1586718;74;1598;-68
2022/09/21 02:55:23;;;;;;;;;;;24.30;43.80;;;;;;1575761;74;1801;-70
2022/09/21 02:57:25;;;;;;;;;;;24.30;43.70;;;;;;1577567;74;759;-69
2022/09/21 02:59:27;;;;;;;;;;;24.30;43.70;;;;;;1581442;73;1143;-69
2022/09/21 03:01:29;;;;;;;;;;;24.20;43.60;;;;;;1585906;74;1905;-70
2022/09/21 03:03:31;;;;;;;;;;;24.30;43.80;;;;;;1554188;76;838;-69
2022/09/21 03:05:33;;;;;;;;;;;24.30;43.80;;;;;;1517519;77;700;-68
2022/09/21 03:07:35;;;;;;;;;;;24.20;43.60;;;;;;1532379;76;1630;-68
2022/09/21 03:09:37;;;;;;;;;;;24.20;43.70;;;;;;1540871;76;1131;-69
2022/09/21 03:11:41;;;;;;;;;;;24.30;43.90;;;;;;1545534;76;746;-68
2022/09/21 03:13:43;;;;;;;;;;;24.30;43.90;;;;;;1543114;76;562;-68
2022/09/21 03:15:45;;;;;;;;;;;24.40;43.90;;;;;;1541506;76;741;-69
2022/09/21 03:17:47;;;;;;;;;;;24.30;44.00;;;;;;1545181;76;738;-69
2022/09/21 03:19:49;;;;;;;;;;;24.20;44.00;;;;;;1518993;76;1934;-67
2022/09/21 03:21:51;;;;;;;;;;;24.30;44.20;;;;;;1530385;76;1578;-68
2022/09/21 03:23:53;;;;;;;;;;;24.30;44.10;;;;;;1547220;76;727;-68
2022/09/21 03:25:55;;;;;;;;;;;24.30;44.00;;;;;;1537806;76;738;-68
2022/09/21 03:27:57;;;;;;;;;;;24.30;44.10;;;;;;1541251;76;770;-67
2022/09/21 03:29:59;;;;;;;;;;;24.30;44.10;;;;;;1538833;75;1023;-67
2022/09/21 03:32:01;;;;;;;;;;;24.30;44.20;;;;;;1542568;76;801;-69
2022/09/21 03:34:03;;;;;;;;;;;24.30;44.20;;;;;;1537096;76;697;-70
2022/09/21 03:36:05;;;;;;;;;;;24.30;44.10;;;;;;1539656;76;1613;-72
2022/09/21 03:38:07;;;;;;;;;;;24.40;44.00;;;;;;1539507;76;1191;-70
2022/09/21 03:40:11;;;;;;;;;;;24.30;44.00;;;;;;1537376;76;1935;-71
2022/09/21 03:42:13;;;;;;;;;;;24.30;44.00;;;;;;1540559;76;776;-71
2022/09/21 03:44:16;;;;;;;;;;;24.30;44.00;;;;;;1548640;75;748;-70
2022/09/21 03:46:18;;;;;;;;;;;24.30;44.00;;;;;;1536390;76;717;-70
2022/09/21 03:48:21;;;;;;;;;;;24.30;43.90;;;;;;1534202;76;1145;-70
2022/09/21 03:50:23;;;;;;;;;;;24.30;43.90;;;;;;1534654;76;1602;-70
2022/09/21 03:52:25;;;;;;;;;;;24.40;43.70;;;;;;1544082;76;626;-70
2022/09/21 03:54:27;;;;;;;;;;;24.30;43.80;;;;;;1543453;76;626;-70
2022/09/21 03:56:29;;;;;;;;;;;24.40;43.70;;;;;;1542906;76;735;-67
2022/09/21 03:58:31;;;;;;;;;;;24.40;43.70;;;;;;1527698;76;1102;-68
2022/09/21 04:00:33;;;;;;;;;;;24.40;43.70;;;;;;1533451;76;1939;-67
2022/09/21 04:02:35;;;;;;;;;;;24.40;43.60;;;;;;1534915;76;775;-68
2022/09/21 04:04:37;;;;;;;;;;;24.40;43.60;;;;;;1530484;76;1598;-69
2022/09/21 04:06:40;;;;;;;;;;;24.50;43.60;;;;;;1530509;76;738;-69
2022/09/21 04:08:41;;;;;;;;;;;24.40;43.50;;;;;;1529716;76;1151;-69
2022/09/21 04:10:43;;;;;;;;;;;24.50;43.60;;;;;;1535434;76;774;-70
2022/09/21 04:12:45;;;;;;;;;;;24.40;43.50;;;;;;1531250;76;771;-68
2022/09/21 04:14:48;;;;;;;;;;;24.50;43.50;;;;;;1531981;76;707;-71
2022/09/21 04:16:50;;;;;;;;;;;24.40;43.60;;;;;;1530334;76;770;-70
2022/09/21 04:18:52;;;;;;;;;;;24.40;43.60;;;;;;1528324;76;1704;-69
2022/09/21 04:20:54;;;;;;;;;;;24.50;43.60;;;;;;1531602;76;1936;-68
2022/09/21 04:22:56;;;;;;;;;;;24.50;43.60;;;;;;1533512;76;635;-68
2022/09/21 04:24:59;;;;;;;;;;;24.50;43.60;;;;;;1528497;76;698;-68
2022/09/21 04:27:01;;;;;;;;;;;24.50;43.60;;;;;;1531565;76;721;-68
2022/09/21 04:29:05;;;;;;;;;;;24.40;43.60;;;;;;1531668;76;1070;-69
2022/09/21 04:31:06;;;;;;;;;;;24.40;43.60;;;;;;1531101;76;1640;-68
2022/09/21 04:33:08;;;;;;;;;;;24.40;43.60;;;;;;1529632;76;700;-69
2022/09/21 04:35:10;;;;;;;;;;;24.40;43.70;;;;;;1532777;76;678;-69
2022/09/21 04:37:12;;;;;;;;;;;24.40;43.90;;;;;;1532460;76;724;-69
2022/09/21 04:39:14;;;;;;;;;;;24.40;43.80;;;;;;1528731;76;1156;-69
2022/09/21 04:41:16;;;;;;;;;;;24.40;43.80;;;;;;1528817;76;1936;-69
2022/09/21 04:43:17;;;;;;;;;;;24.40;43.80;;;;;;1528861;76;699;-69
2022/09/21 04:45:20;;;;;;;;;;;24.40;43.80;;;;;;1523707;76;1582;-69
2022/09/21 04:47:23;;;;;;;;;;;24.30;43.80;;;;;;1532622;76;611;-69
2022/09/21 04:49:25;;;;;;;;;;;24.40;43.80;;;;;;1534412;75;1218;-68
2022/09/21 04:51:27;;;;;;;;;;;24.30;44.00;;;;;;1539105;76;830;-68
2022/09/21 04:53:29;;;;;;;;;;;24.30;43.90;;;;;;1533053;76;755;-68
2022/09/21 04:55:31;;;;;;;;;;;24.30;43.90;;;;;;1541142;76;692;-68
2022/09/21 04:57:34;;;;;;;;;;;24.40;44.00;;;;;;1541497;76;726;-69
2022/09/21 04:59:36;;;;;;;;;;;24.40;43.90;;;;;;1538009;75;1609;-68
2022/09/21 05:01:38;;;;;;;;;;;24.30;43.90;;;;;;1535113;76;1917;-68
2022/09/21 05:03:40;;;;;;;;;;;24.40;44.00;;;;;;1534793;76;640;-68
2022/09/21 05:05:46;;;;;;;;;;;24.30;44.00;;;;;;1540593;76;1031;-68
2022/09/21 05:07:48;;;;;;;;;;;24.30;44.10;;;;;;1526964;76;699;-68
2022/09/21 05:10:01;;;;;;;;;;;24.30;44.10;;;;;;1533837;76;1086;-69
2022/09/21 05:12:03;;;;;;;;;;;24.30;44.20;;;;;;1544300;76;817;-67
2022/09/21 05:14:06;;;;;;;;;;;24.30;44.10;;;;;;1521805;76;1579;-67
2022/09/21 05:16:08;;;;;;;;;;;24.30;44.10;;;;;;1536868;76;809;-67
2022/09/21 05:18:09;;;;;;;;;;;24.30;44.10;;;;;;1518254;76;1203;-67
2022/09/21 05:20:11;;;;;;;;;;;24.30;44.00;;;;;;1534394;76;712;-69
2022/09/21 05:22:13;;;;;;;;;;;24.30;44.30;;;;;;1539191;75;1948;-68
2022/09/21 05:24:15;;;;;;;;;;;24.10;44.60;;;;;;1538582;76;705;-67
2022/09/21 05:26:17;;;;;;;;;;;24.00;44.80;;;;;;1530445;76;597;-69
2022/09/21 05:28:38;;;;;;;;;;;24.00;45.00;;;;;;1533333;75;1586;-69
2022/09/21 05:30:40;;;;;;;;;;;23.90;45.90;;;;;;1594580;73;523;-65
2022/09/21 05:32:47;;;;;;;;;;;23.90;45.80;;;;;;1613950;73;689;-65
2022/09/21 05:34:50;;;;;;;;;;;23.80;45.80;;;;;;1584684;73;695;-64
2022/09/21 05:36:54;;;;;;;;;;;23.90;45.70;;;;;;1556773;75;673;-66
2022/09/21 05:38:56;;;;;;;;;;;23.90;45.70;;;;;;1581885;73;1211;-67
2022/09/21 05:40:58;;;;;;;;;;;23.90;45.40;;;;;;1570534;75;1950;-65
2022/09/21 05:43:00;;;;;;;;;;;24.00;45.20;;;;;;1550406;76;1371;-65
2022/09/21 05:45:02;;;;;;;;;;;24.00;45.10;;;;;;1549768;75;706;-65
2022/09/21 05:47:11;;;;;;;;;;;24.10;45.10;;;;;;1538199;75;714;-65
2022/09/21 05:49:27;;;;;;;;;;;24.10;45.00;;;;;;1542785;77;1154;-71
2022/09/21 05:51:36;;;;;;;;;;;24.10;44.90;;;;;;1560228;75;761;-66
2022/09/21 05:53:42;;;;;;;;;;;24.20;44.70;;;;;;1555454;75;1955;-65
2022/09/21 05:55:59;;;;;;;;;;;24.20;44.70;;;;;;1566106;75;1949;-64
2022/09/21 05:58:03;;;;;;;;;;;24.10;44.70;;;;;;1566504;75;696;-66
2022/09/21 06:00:12;;;;;;;;;;;24.00;44.90;;;;;;1564219;75;1113;-65
2022/09/21 06:02:28;;;;;;;;;;;23.90;44.90;;;;;;1560298;75;1936;-65
2022/09/21 06:04:30;;;;;;;;;;;23.90;45.20;;;;;;1561773;75;1874;-66
2022/09/21 06:06:32;;;;;;;;;;;23.90;45.20;;;;;;1565797;75;897;-65
2022/09/21 06:08:34;;;;;;;;;;;23.80;45.30;;;;;;1566519;75;1156;-66
2022/09/21 06:10:36;;;;;;;;;;;23.80;45.40;;;;;;1566613;75;1584;-65
2022/09/21 06:12:38;;;;;;;;;;;23.80;45.30;;;;;;1558302;75;679;-65
2022/09/21 06:14:40;;;;;;;;;;;23.70;45.40;;;;;;1560023;75;832;-65
2022/09/21 06:16:42;;;;;;;;;;;23.70;45.50;;;;;;1554754;75;652;-65
2022/09/21 06:18:43;;;;;;;;;;;23.70;45.60;;;;;;1569122;75;1189;-65
2022/09/21 06:20:46;;;;;;;;;;;23.70;45.60;;;;;;1566893;75;748;-65
2022/09/21 06:22:47;;;;;;;;;;;23.60;45.70;;;;;;1564010;75;1924;-65
2022/09/21 06:24:49;;;;;;;;;;;23.60;45.90;;;;;;1566330;75;1574;-65
2022/09/21 06:26:51;;;;;;;;;;;23.60;45.80;;;;;;1565294;75;753;-66
2022/09/21 06:28:53;;;;;;;;;;;23.50;45.90;;;;;;1585807;74;1220;-65
2022/09/21 06:30:55;;;;;;;;;;;23.60;46.00;;;;;;1557212;75;785;-67
2022/09/21 06:33:00;;;;;;;;;;;23.50;46.00;;;;;;1557753;75;717;-65
2022/09/21 06:35:02;;;;;;;;;;;23.50;46.00;;;;;;1568035;75;968;-65
2022/09/21 06:37:04;;;;;;;;;;;23.50;46.00;;;;;;1568800;75;804;-67
2022/09/21 06:39:06;;;;;;;;;;;23.40;46.00;;;;;;1557479;75;1567;-65
2022/09/21 06:41:08;;;;;;;;;;;23.40;46.00;;;;;;1565238;75;1946;-65
2022/09/21 06:43:09;;;;;;;;;;;23.40;46.10;;;;;;1555141;75;701;-64
2022/09/21 06:45:11;;;;;;;;;;;23.40;46.00;;;;;;1547457;75;952;-65
2022/09/21 06:47:13;;;;;;;;;;;23.40;46.10;;;;;;1557414;75;691;-65
2022/09/21 06:49:15;;;;;;;;;;;23.40;46.30;;;;;;1566321;75;1152;-66
2022/09/21 06:51:19;;;;;;;;;;;23.40;46.20;;;;;;1567617;75;726;-65
2022/09/21 06:53:21;;;;;;;;;;;23.40;46.30;;;;;;1563346;75;1684;-65
2022/09/21 06:55:23;;;;;;;;;;;23.40;46.10;;;;;;1564169;75;712;-66
2022/09/21 06:57:25;;;;;;;;;;;23.40;46.20;;;;;;1557842;75;733;-65
2022/09/21 06:59:27;;;;;;;;;;;23.40;46.20;;;;;;1565611;75;1134;-65
2022/09/21 07:01:29;;;;;;;;;;;23.40;46.20;;;;;;1560660;75;1903;-65
2022/09/21 07:03:31;;;;;;;;;;;23.30;46.20;;;;;;1570599;75;686;-66
2022/09/21 07:05:33;;;;;;;;;;;23.40;46.20;;;;;;1562713;75;787;-65
2022/09/21 07:07:35;;;;;;;;;;;23.40;46.30;;;;;;1565797;75;1569;-65
2022/09/21 07:09:37;;;;;;;;;;;23.60;46.10;;;;;;1556102;75;1142;-67
2022/09/21 07:11:40;;;;;;;;;;;23.80;45.70;;;;;;1544902;75;672;-65
2022/09/21 07:13:42;;;;;;;;;;;24.00;45.40;;;;;;1562100;75;676;-65
2022/09/21 07:15:44;;;;;;;;;;;24.00;45.30;;;;;;1578651;74;678;-65
2022/09/21 07:17:46;;;;;;;;;;;23.90;45.50;;;;;;1564890;75;673;-65
2022/09/21 07:19:48;;;;;;;;;;;23.80;45.60;;;;;;1557285;75;1138;-65
2022/09/21 07:21:52;;;;;;;;;;;23.80;45.70;;;;;;1557112;75;1928;-65
2022/09/21 07:23:54;;;;;;;;;;;23.80;45.70;;;;;;1552884;75;681;-65
2022/09/21 07:25:57;;;;;;;;;;;23.80;45.70;;;;;;1550694;76;743;-66
2022/09/21 07:27:59;;;;;;;;;;;23.80;45.70;;;;;;1554485;76;1991;-65
2022/09/21 07:30:01;;;;;;;;;;;23.80;45.80;;;;;;1577335;74;1156;-63
2022/09/21 07:32:04;;;;;;;;;;;23.90;46.00;;;;;;1536837;77;747;-65
2022/09/21 07:34:06;;;;;;;;;;;23.90;45.90;;;;;;1567949;75;1573;-64
2022/09/21 07:36:11;;;;;;;;;;;23.90;45.80;;;;;;1572082;74;654;-65
2022/09/21 07:38:13;;;;;;;;;;;24.00;45.80;;;;;;1563311;75;666;-66
2022/09/21 07:40:15;;;;;;;;;;;24.00;45.70;;;;;;1536356;77;1138;-65
2022/09/21 07:42:18;;;;;;;;;;;23.90;45.70;;;;;;1579432;75;1926;-65
2022/09/21 07:44:21;;;;;;;;;;;24.00;45.60;;;;;;1569738;75;751;-66
2022/09/21 07:46:23;;;;;;;;;;;24.00;45.60;;;;;;1533470;76;678;-66
2022/09/21 07:48:25;;;;;;;;;;;24.10;45.60;;;;;;1574560;74;1566;-65
2022/09/21 07:50:27;;;;;;;;;;;24.10;45.50;;;;;;1525441;77;708;-65
2022/09/21 07:52:29;;;;;;;;;;;24.20;45.50;;;;;;1566661;75;700;-66
2022/09/21 07:54:32;;;;;;;;;;;24.20;45.40;;;;;;1568072;75;705;-66
2022/09/21 07:56:36;;;;;;;;;;;24.20;45.30;;;;;;1560462;75;725;-66
2022/09/21 08:00:57;;;;;;;;;;;24.20;45.20;;;;;;1532026;76;1628;-65
2022/09/21 08:03:00;;;;;;;;;;;24.20;45.10;;;;;;1549394;76;1935;-66
2022/09/21 08:05:01;;;;;;;;;;;24.40;45.20;;;;;;1524270;77;683;-65
2022/09/21 08:07:04;;;;;;;;;;;24.30;45.10;;;;;;1553989;76;750;-65
2022/09/21 08:09:05;;;;;;;;;;;24.40;45.10;;;;;;1564958;75;1168;-66
2022/09/21 08:11:07;;;;;;;;;;;24.40;45.00;;;;;;1546644;75;741;-66
2022/09/21 08:13:09;;;;;;;;;;;24.40;45.00;;;;;;1581101;74;722;-66
2022/09/21 08:15:11;;;;;;;;;;;24.40;45.00;;;;;;1562021;75;799;-65
2022/09/21 08:17:13;;;;;;;;;;;24.50;45.00;;;;;;1555157;75;1566;-65
2022/09/21 08:19:16;;;;;;;;;;;24.50;44.90;;;;;;1564799;75;1159;-65
2022/09/21 08:21:19;;;;;;;;;;;24.40;44.70;;;;;;1570368;75;758;-66
2022/09/21 08:23:21;;;;;;;;;;;24.50;44.80;;;;;;1570172;75;1908;-66
2022/09/21 08:25:23;;;;;;;;;;;24.50;44.80;;;;;;1571033;75;636;-67
2022/09/21 08:27:25;;;;;;;;;;;24.50;44.80;;;;;;1535979;75;816;-65
2022/09/21 08:29:27;;;;;;;;;;;24.50;44.70;;;;;;1565586;75;1125;-65
2022/09/21 08:31:29;;;;;;;;;;;24.50;44.70;;;;;;1567289;75;1536;-66
2022/09/21 08:33:31;;;;;;;;;;;24.50;44.70;;;;;;1579748;74;709;-65
2022/09/21 08:35:33;;;;;;;;;;;24.50;44.60;;;;;;1537024;77;687;-65
2022/09/21 08:37:36;;;;;;;;;;;24.60;44.60;;;;;;1547779;75;728;-64
2022/09/21 08:39:38;;;;;;;;;;;24.50;44.60;;;;;;1571355;74;1195;-65
2022/09/21 08:41:47;;;;;;;;;;;24.60;44.50;;;;;;1577101;74;1939;-65
2022/09/21 08:43:54;;;;;;;;;;;24.60;44.50;;;;;;1563502;75;1930;-66
2022/09/21 08:45:56;;;;;;;;;;;24.60;44.50;;;;;;1542781;76;1778;-65
2022/09/21 08:47:58;;;;;;;;;;;24.60;44.40;;;;;;1541096;76;747;-67
2022/09/21 08:50:00;;;;;;;;;;;24.60;44.30;;;;;;1561799;75;1162;-66
2022/09/21 08:52:03;;;;;;;;;;;24.60;44.40;;;;;;1560292;75;790;-67
2022/09/21 08:54:07;;;;;;;;;;;24.60;44.40;;;;;;1561918;75;765;-66
2022/09/21 08:56:12;;;;;;;;;;;24.70;44.40;;;;;;1560952;75;744;-65
2022/09/21 08:58:22;;;;;;;;;;;24.60;44.30;;;;;;1567405;75;809;-65
2022/09/21 09:00:24;;;;;;;;;;;24.60;44.30;;;;;;1563194;75;1161;-67
2022/09/21 09:02:30;;;;;;;;;;;24.60;44.30;;;;;;1569481;75;1920;-65
2022/09/21 09:04:48;;;;;;;;;;;24.60;44.40;;;;;;1577167;75;1979;-66
2022/09/21 09:06:52;;;;;;;;;;;24.70;44.70;;;;;;1579396;75;2184;-65
2022/09/21 09:08:56;;;;;;;;;;;24.60;44.70;;;;;;1572204;74;1625;-67
2022/09/21 09:11:09;;;;;;;;;;;24.70;44.80;;;;;;1580210;73;1952;-67
2022/09/21 09:13:18;;;;;;;;;;;24.70;44.80;;;;;;1542513;76;1574;-67
2022/09/21 09:15:25;;;;;;;;;;;24.60;44.70;;;;;;1576164;75;1732;-66
2022/09/21 09:17:28;;;;;;;;;;;24.60;44.50;;;;;;1568049;75;2165;-66
2022/09/21 09:19:35;;;;;;;;;;;24.60;44.40;;;;;;1570128;75;2088;-68
2022/09/21 09:21:40;;;;;;;;;;;24.70;44.50;;;;;;1578693;74;1853;-64
2022/09/21 09:23:49;;;;;;;;;;;24.70;44.50;;;;;;1563798;75;1931;-67
2022/09/21 09:25:52;;;;;;;;;;;24.70;44.40;;;;;;1567730;75;610;-68
2022/09/21 09:27:55;;;;;;;;;;;24.70;44.40;;;;;;1575330;75;1572;-66
2022/09/21 09:30:04;;;;;;;;;;;24.70;44.40;;;;;;1560850;75;1153;-66
2022/09/21 09:32:08;;;;;;;;;;;24.70;44.20;;;;;;1530925;77;953;-67
2022/09/21 09:34:11;;;;;;;;;;;24.80;44.20;;;;;;1557135;75;674;-66
2022/09/21 09:36:13;;;;;;;;;;;24.80;44.20;;;;;;1568370;75;637;-67
2022/09/21 09:38:23;;;;;;;;;;;24.80;44.20;;;;;;1558060;75;773;-67
2022/09/21 09:40:32;;;;;;;;;;;24.80;44.20;;;;;;1561251;75;1156;-65
2022/09/21 09:42:48;;;;;;;;;;;24.80;44.20;;;;;;1565091;75;1927;-66
2022/09/21 09:45:03;;;;;;;;;;;24.70;44.20;;;;;;1563700;75;1820;-67
2022/09/21 09:47:07;;;;;;;;;;;24.70;44.20;;;;;;1563525;75;713;-67
2022/09/21 09:49:13;;;;;;;;;;;24.70;44.00;;;;;;1567470;75;1180;-65
2022/09/21 09:51:15;;;;;;;;;;;24.80;44.00;;;;;;1563306;75;1689;-65
2022/09/21 09:53:18;;;;;;;;;;;24.70;44.10;;;;;;1565066;75;805;-67
2022/09/21 09:55:21;;;;;;;;;;;24.80;43.90;;;;;;1577130;74;1567;-65
2022/09/21 09:57:28;;;;;;;;;;;24.80;43.90;;;;;;1574916;75;696;-66
2022/09/21 09:59:37;;;;;;;;;;;24.90;43.90;;;;;;1576530;75;1788;-66
2022/09/21 10:01:40;;;;;;;;;;;24.80;43.70;;;;;;1569607;74;701;-66
2022/09/21 10:03:43;;;;;;;;;;;24.90;43.70;;;;;;1573235;74;1924;-66
2022/09/21 10:05:45;;;;;;;;;;;25.00;43.50;;;;;;1560266;75;574;-66
2022/09/21 10:07:46;;;;;;;;;;;25.00;43.30;;;;;;1568977;75;819;-65
2022/09/21 10:09:48;;;;;;;;;;;25.00;43.20;;;;;;1563387;75;1578;-66
2022/09/21 10:11:51;;;;;;;;;;;25.10;43.10;;;;;;1558836;75;732;-66
2022/09/21 10:13:53;;;;;;;;;;;25.10;43.00;;;;;;1566497;75;740;-65
2022/09/21 10:15:56;;;;;;;;;;;25.10;42.90;;;;;;1565088;75;735;-67
2022/09/21 10:18:00;;;;;;;;;;;25.20;42.80;;;;;;1568423;75;1802;-66
2022/09/21 10:20:02;;;;;;;;;;;25.20;42.70;;;;;;1558562;75;1673;-67
2022/09/21 10:22:04;;;;;;;;;;;25.30;42.60;;;;;;1564527;75;830;-67
2022/09/21 10:24:07;;;;;;;;;;;25.20;42.60;;;;;;1563290;75;1942;-66
2022/09/21 10:26:09;;;;;;;;;;;25.10;42.60;;;;;;1580032;75;766;-65
2022/09/21 10:28:11;;;;;;;;;;;25.20;42.60;;;;;;1576943;75;760;-65
2022/09/21 10:30:31;;;;;;;;;;;25.20;42.60;;;;;;1545341;75;1132;-65
2022/09/21 10:32:33;;;;;;;;;;;25.10;42.70;;;;;;1577210;74;713;-66
2022/09/21 10:34:35;;;;;;;;;;;25.10;42.80;;;;;;1553590;75;632;-65
2022/09/21 10:36:37;;;;;;;;;;;25.00;42.80;;;;;;1550370;75;646;-65
2022/09/21 10:38:39;;;;;;;;;;;25.00;42.80;;;;;;1531105;76;1732;-65
2022/09/21 10:40:41;;;;;;;;;;;25.00;42.80;;;;;;1548190;75;768;-65
2022/09/21 10:42:43;;;;;;;;;;;25.00;42.80;;;;;;1547458;75;1943;-67
2022/09/21 10:44:45;;;;;;;;;;;25.00;43.00;;;;;;1553470;76;671;-66
2022/09/21 10:46:47;;;;;;;;;;;25.00;43.10;;;;;;1530960;76;750;-65
2022/09/21 10:48:49;;;;;;;;;;;25.00;43.10;;;;;;1542833;75;1140;-65
2022/09/21 10:50:51;;;;;;;;;;;25.00;43.30;;;;;;1566016;75;1340;-67
2022/09/21 10:52:55;;;;;;;;;;;24.90;43.40;;;;;;1560671;75;736;-68
2022/09/21 10:54:57;;;;;;;;;;;24.90;43.40;;;;;;1556879;75;1015;-68
2022/09/21 10:57:01;;;;;;;;;;;24.90;43.50;;;;;;1568779;75;700;-66
2022/09/21 10:59:13;;;;;;;;;;;24.90;43.60;;;;;;1555794;75;1847;-66
2022/09/21 11:01:25;;;;;;;;;;;24.90;43.60;;;;;;1531196;75;1131;-66
2022/09/21 11:03:31;;;;;;;;;;;24.80;43.60;;;;;;1569962;74;1926;-63
2022/09/21 11:05:34;;;;;;;;;;;24.90;43.60;;;;;;1576896;73;1661;-66
2022/09/21 11:07:56;;;;;;;;;;;25.00;43.60;;;;;;1575323;75;693;-65
2022/09/21 11:10:05;;;;;;;;;;;24.90;43.80;;;;;;1529680;76;1165;-66
2022/09/21 11:12:18;;;;;;;;;;;24.90;43.60;;;;;;1550435;76;669;-66
2022/09/21 11:14:40;;;;;;;;;;;24.90;43.60;;;;;;1549904;76;678;-67
2022/09/21 11:17:01;;;;;;;;;;;24.80;43.70;;;;;;1548412;76;1949;-66
2022/09/21 11:19:20;;;;;;;;;;;24.80;43.50;;;;;;1571297;75;1929;-66
2022/09/21 11:21:40;;;;;;;;;;;24.80;43.60;;;;;;1543617;76;700;-66
2022/09/21 11:23:47;;;;;;;;;;;24.80;43.60;;;;;;1575748;74;1930;-65
2022/09/21 11:25:59;;;;;;;;;;;24.80;43.70;;;;;;1570671;75;669;-65
2022/09/21 11:28:06;;;;;;;;;;;24.80;43.80;;;;;;1557521;75;739;-69
2022/09/21 11:30:15;;;;;;;;;;;24.80;44.10;;;;;;1532784;74;2078;-64
2022/09/21 11:32:30;;;;;;;;;;;24.70;43.70;;;;;;1561194;75;734;-64
2022/09/21 11:34:36;;;;;;;;;;;24.70;43.80;;;;;;1552126;75;1634;-64
2022/09/21 11:36:40;;;;;;;;;;;24.80;43.90;;;;;;1549765;75;701;-65
2022/09/21 11:38:50;;;;;;;;;;;24.70;43.90;;;;;;1564250;75;2149;-64
2022/09/21 11:41:05;;;;;;;;;;;24.60;43.90;;;;;;1523078;76;749;-65
2022/09/21 11:43:24;;;;;;;;;;;24.60;44.00;;;;;;1520191;76;1945;-65
2022/09/21 11:45:43;;;;;;;;;;;24.50;44.10;;;;;;1530221;76;657;-64
2022/09/21 11:47:46;;;;;;;;;;;24.50;44.20;;;;;;1525695;76;1837;-65
2022/09/21 11:49:50;;;;;;;;;;;24.50;44.30;;;;;;1528090;76;1125;-65
2022/09/21 11:51:59;;;;;;;;;;;24.50;44.40;;;;;;1528137;76;731;-65
2022/09/21 11:54:15;;;;;;;;;;;24.50;44.40;;;;;;1525460;76;901;-66
2022/09/21 11:56:21;;;;;;;;;;;24.50;44.40;;;;;;1520098;76;1206;-64
2022/09/21 11:58:30;;;;;;;;;;;24.40;44.40;;;;;;1527018;76;2060;-65
2022/09/21 12:00:34;;;;;;;;;;;24.40;44.40;;;;;;1521745;76;2005;-64
2022/09/21 12:02:41;;;;;;;;;;;24.40;44.50;;;;;;1523661;76;1761;-64
2022/09/21 12:04:49;;;;;;;;;;;24.40;44.60;;;;;;1525354;76;1909;-71
2022/09/21 12:07:02;;;;;;;;;;;24.40;44.50;;;;;;1539266;76;693;-69
2022/09/21 12:09:17;;;;;;;;;;;24.50;44.70;;;;;;1525585;75;1590;-70
2022/09/21 12:11:27;;;;;;;;;;;24.50;44.60;;;;;;1529132;76;749;-70
2022/09/21 12:13:49;;;;;;;;;;;24.50;44.50;;;;;;1523466;76;834;-69
2022/09/21 12:15:56;;;;;;;;;;;24.50;44.30;;;;;;1528528;76;1524;-69
2022/09/21 12:18:16;;;;;;;;;;;24.40;44.30;;;;;;1519824;76;781;-69
2022/09/21 12:20:38;;;;;;;;;;;24.50;44.40;;;;;;1523860;76;1122;-70
2022/09/21 12:22:41;;;;;;;;;;;24.50;44.40;;;;;;1524410;76;1723;-69